sensor_id;sensor_type;location;lat;lon;timestamp;P1;durP1;ratioP1;P2;durP2;ratioP2
18999;SDS011;9633;50.980;13.850;2023-03-19T00:00:13;21.73;;;14.77;;
18999;SDS011;9633;50.980;13.850;2023-03-19T00:01:48;21.20;;;14.70;;
18999;SDS011;9633;50.980;13.850;2023-03-19T00:03:20;21.97;;;14.73;;
18999;SDS011;9633;50.980;13.850;2023-03-19T00:04:53;22.73;;;14.87;;
18999;SDS011;9633;50.980;13.850;2023-03-19T00:06:26;21.53;;;14.97;;
18999;SDS011;9633;50.980;13.850;2023-03-19T00:07:58;24.60;;;14.97;;
18999;SDS011;9633;50.980;13.850;2023-03-19T00:09:31;21.67;;;15.00;;
18999;SDS011;9633;50.980;13.850;2023-03-19T00:11:06;23.30;;;15.47;;
18999;SDS011;9633;50.980;13.850;2023-03-19T00:12:40;21.57;;;15.03;;
18999;SDS011;9633;50.980;13.850;2023-03-19T00:14:13;22.23;;;14.63;;
18999;SDS011;9633;50.980;13.850;2023-03-19T00:15:46;21.97;;;14.97;;
18999;SDS011;9633;50.980;13.850;2023-03-19T00:17:19;21.80;;;14.77;;
18999;SDS011;9633;50.980;13.850;2023-03-19T00:18:52;22.97;;;15.80;;
18999;SDS011;9633;50.980;13.850;2023-03-19T00:20:25;24.03;;;14.50;;
18999;SDS011;9633;50.980;13.850;2023-03-19T00:21:58;19.07;;;13.93;;
18999;SDS011;9633;50.980;13.850;2023-03-19T00:23:32;21.97;;;14.83;;
18999;SDS011;9633;50.980;13.850;2023-03-19T00:25:06;20.93;;;14.87;;
18999;SDS011;9633;50.980;13.850;2023-03-19T00:26:42;19.13;;;13.97;;
18999;SDS011;9633;50.980;13.850;2023-03-19T00:28:16;19.67;;;14.30;;
18999;SDS011;9633;50.980;13.850;2023-03-19T00:29:49;19.80;;;14.40;;
18999;SDS011;9633;50.980;13.850;2023-03-19T00:31:22;21.17;;;14.27;;
18999;SDS011;9633;50.980;13.850;2023-03-19T00:32:57;21.63;;;14.07;;
18999;SDS011;9633;50.980;13.850;2023-03-19T00:34:29;20.27;;;14.03;;
18999;SDS011;9633;50.980;13.850;2023-03-19T00:36:03;23.07;;;14.30;;
18999;SDS011;9633;50.980;13.850;2023-03-19T00:37:37;20.67;;;14.30;;
18999;SDS011;9633;50.980;13.850;2023-03-19T00:39:11;20.73;;;14.03;;
18999;SDS011;9633;50.980;13.850;2023-03-19T00:40:44;19.80;;;14.33;;
18999;SDS011;9633;50.980;13.850;2023-03-19T00:42:20;19.17;;;13.63;;
18999;SDS011;9633;50.980;13.850;2023-03-19T00:43:52;20.97;;;14.63;;
18999;SDS011;9633;50.980;13.850;2023-03-19T00:45:26;22.67;;;14.40;;
18999;SDS011;9633;50.980;13.850;2023-03-19T00:47:01;21.00;;;14.43;;
18999;SDS011;9633;50.980;13.850;2023-03-19T00:48:34;21.43;;;14.50;;
18999;SDS011;9633;50.980;13.850;2023-03-19T00:50:08;22.70;;;14.87;;
18999;SDS011;9633;50.980;13.850;2023-03-19T00:51:42;22.03;;;13.90;;
18999;SDS011;9633;50.980;13.850;2023-03-19T00:53:17;19.47;;;13.77;;
18999;SDS011;9633;50.980;13.850;2023-03-19T00:54:50;23.80;;;14.33;;
18999;SDS011;9633;50.980;13.850;2023-03-19T00:56:23;21.27;;;14.27;;
18999;SDS011;9633;50.980;13.850;2023-03-19T00:57:58;18.50;;;13.47;;
18999;SDS011;9633;50.980;13.850;2023-03-19T00:59:31;22.83;;;15.03;;
18999;SDS011;9633;50.980;13.850;2023-03-19T01:01:05;22.13;;;14.87;;
18999;SDS011;9633;50.980;13.850;2023-03-19T01:02:39;22.80;;;15.40;;
18999;SDS011;9633;50.980;13.850;2023-03-19T01:04:12;21.10;;;14.83;;
18999;SDS011;9633;50.980;13.850;2023-03-19T01:05:46;22.00;;;14.60;;
18999;SDS011;9633;50.980;13.850;2023-03-19T01:07:23;21.70;;;14.33;;
18999;SDS011;9633;50.980;13.850;2023-03-19T01:08:56;22.50;;;14.63;;
18999;SDS011;9633;50.980;13.850;2023-03-19T01:10:31;21.40;;;15.03;;
18999;SDS011;9633;50.980;13.850;2023-03-19T01:12:06;22.03;;;14.17;;
18999;SDS011;9633;50.980;13.850;2023-03-19T01:13:40;20.30;;;14.27;;
18999;SDS011;9633;50.980;13.850;2023-03-19T01:15:14;21.47;;;13.97;;
18999;SDS011;9633;50.980;13.850;2023-03-19T01:16:48;23.77;;;14.80;;
18999;SDS011;9633;50.980;13.850;2023-03-19T01:18:21;22.93;;;14.20;;
18999;SDS011;9633;50.980;13.850;2023-03-19T01:19:53;20.17;;;14.90;;
18999;SDS011;9633;50.980;13.850;2023-03-19T01:21:26;23.90;;;14.83;;
18999;SDS011;9633;50.980;13.850;2023-03-19T01:23:01;22.20;;;14.87;;
18999;SDS011;9633;50.980;13.850;2023-03-19T01:24:34;22.00;;;14.67;;
18999;SDS011;9633;50.980;13.850;2023-03-19T01:26:08;20.00;;;14.50;;
18999;SDS011;9633;50.980;13.850;2023-03-19T01:27:41;20.67;;;15.03;;
18999;SDS011;9633;50.980;13.850;2023-03-19T01:29:17;22.60;;;14.73;;
18999;SDS011;9633;50.980;13.850;2023-03-19T01:30:50;21.60;;;14.87;;
18999;SDS011;9633;50.980;13.850;2023-03-19T01:32:46;21.27;;;14.97;;
18999;SDS011;9633;50.980;13.850;2023-03-19T01:34:33;20.77;;;14.13;;
18999;SDS011;9633;50.980;13.850;2023-03-19T01:36:12;20.93;;;14.03;;
18999;SDS011;9633;50.980;13.850;2023-03-19T01:38:01;20.17;;;14.13;;
18999;SDS011;9633;50.980;13.850;2023-03-19T01:39:34;23.10;;;15.23;;
18999;SDS011;9633;50.980;13.850;2023-03-19T01:41:10;22.57;;;15.00;;
18999;SDS011;9633;50.980;13.850;2023-03-19T01:42:50;21.40;;;14.63;;
18999;SDS011;9633;50.980;13.850;2023-03-19T01:44:46;22.10;;;14.50;;
18999;SDS011;9633;50.980;13.850;2023-03-19T01:46:27;23.80;;;14.57;;
18999;SDS011;9633;50.980;13.850;2023-03-19T01:48:26;20.97;;;14.57;;
18999;SDS011;9633;50.980;13.850;2023-03-19T01:50:11;23.37;;;14.40;;
18999;SDS011;9633;50.980;13.850;2023-03-19T01:52:18;22.70;;;14.77;;
18999;SDS011;9633;50.980;13.850;2023-03-19T01:54:11;23.20;;;14.93;;
18999;SDS011;9633;50.980;13.850;2023-03-19T01:56:10;21.07;;;14.27;;
18999;SDS011;9633;50.980;13.850;2023-03-19T01:58:03;21.97;;;15.00;;
18999;SDS011;9633;50.980;13.850;2023-03-19T01:59:59;21.77;;;15.07;;
18999;SDS011;9633;50.980;13.850;2023-03-19T02:01:48;23.10;;;15.00;;
18999;SDS011;9633;50.980;13.850;2023-03-19T02:03:26;22.00;;;14.87;;
18999;SDS011;9633;50.980;13.850;2023-03-19T02:05:13;20.97;;;15.10;;
18999;SDS011;9633;50.980;13.850;2023-03-19T02:06:53;21.33;;;14.93;;
18999;SDS011;9633;50.980;13.850;2023-03-19T02:08:28;20.03;;;14.43;;
18999;SDS011;9633;50.980;13.850;2023-03-19T02:10:03;21.17;;;13.93;;
18999;SDS011;9633;50.980;13.850;2023-03-19T02:11:40;20.20;;;14.83;;
18999;SDS011;9633;50.980;13.850;2023-03-19T02:13:13;22.27;;;14.77;;
18999;SDS011;9633;50.980;13.850;2023-03-19T02:14:47;21.10;;;13.83;;
18999;SDS011;9633;50.980;13.850;2023-03-19T02:16:21;19.77;;;13.63;;
18999;SDS011;9633;50.980;13.850;2023-03-19T02:17:56;19.97;;;13.93;;
18999;SDS011;9633;50.980;13.850;2023-03-19T02:19:30;19.70;;;13.83;;
18999;SDS011;9633;50.980;13.850;2023-03-19T02:21:12;21.90;;;14.43;;
18999;SDS011;9633;50.980;13.850;2023-03-19T02:22:50;20.23;;;14.37;;
18999;SDS011;9633;50.980;13.850;2023-03-19T02:24:31;22.27;;;14.30;;
18999;SDS011;9633;50.980;13.850;2023-03-19T02:26:16;21.50;;;14.10;;
18999;SDS011;9633;50.980;13.850;2023-03-19T02:27:53;21.40;;;13.83;;
18999;SDS011;9633;50.980;13.850;2023-03-19T02:29:25;20.10;;;14.37;;
18999;SDS011;9633;50.980;13.850;2023-03-19T02:31:01;20.90;;;14.33;;
18999;SDS011;9633;50.980;13.850;2023-03-19T02:32:35;20.67;;;14.27;;
18999;SDS011;9633;50.980;13.850;2023-03-19T02:36:08;22.33;;;14.37;;
18999;SDS011;9633;50.980;13.850;2023-03-19T02:37:44;24.40;;;14.20;;
18999;SDS011;9633;50.980;13.850;2023-03-19T02:39:17;22.57;;;14.33;;
18999;SDS011;9633;50.980;13.850;2023-03-19T02:40:57;20.90;;;14.50;;
18999;SDS011;9633;50.980;13.850;2023-03-19T02:42:34;21.53;;;13.60;;
18999;SDS011;9633;50.980;13.850;2023-03-19T02:44:07;22.73;;;14.43;;
18999;SDS011;9633;50.980;13.850;2023-03-19T02:45:43;22.87;;;14.77;;
18999;SDS011;9633;50.980;13.850;2023-03-19T02:47:17;20.27;;;14.20;;
18999;SDS011;9633;50.980;13.850;2023-03-19T02:48:50;19.93;;;13.67;;
18999;SDS011;9633;50.980;13.850;2023-03-19T02:50:24;23.67;;;14.23;;
18999;SDS011;9633;50.980;13.850;2023-03-19T02:51:57;22.23;;;14.70;;
18999;SDS011;9633;50.980;13.850;2023-03-19T02:53:31;20.23;;;14.03;;
18999;SDS011;9633;50.980;13.850;2023-03-19T02:55:05;21.03;;;14.53;;
18999;SDS011;9633;50.980;13.850;2023-03-19T02:56:38;20.00;;;13.63;;
18999;SDS011;9633;50.980;13.850;2023-03-19T02:58:13;24.10;;;14.37;;
18999;SDS011;9633;50.980;13.850;2023-03-19T02:59:46;23.10;;;14.50;;
18999;SDS011;9633;50.980;13.850;2023-03-19T03:01:19;21.20;;;13.87;;
18999;SDS011;9633;50.980;13.850;2023-03-19T03:02:52;21.77;;;13.13;;
18999;SDS011;9633;50.980;13.850;2023-03-19T03:04:27;19.33;;;13.53;;
18999;SDS011;9633;50.980;13.850;2023-03-19T03:06:01;21.00;;;13.97;;
18999;SDS011;9633;50.980;13.850;2023-03-19T03:07:34;22.67;;;13.90;;
18999;SDS011;9633;50.980;13.850;2023-03-19T03:09:08;19.83;;;14.40;;
18999;SDS011;9633;50.980;13.850;2023-03-19T03:10:42;21.03;;;13.50;;
18999;SDS011;9633;50.980;13.850;2023-03-19T03:12:15;21.60;;;13.90;;
18999;SDS011;9633;50.980;13.850;2023-03-19T03:13:51;21.07;;;14.30;;
18999;SDS011;9633;50.980;13.850;2023-03-19T03:15:23;22.20;;;14.87;;
18999;SDS011;9633;50.980;13.850;2023-03-19T03:16:56;20.60;;;14.00;;
18999;SDS011;9633;50.980;13.850;2023-03-19T03:18:30;21.07;;;13.63;;
18999;SDS011;9633;50.980;13.850;2023-03-19T03:20:04;21.70;;;13.37;;
18999;SDS011;9633;50.980;13.850;2023-03-19T03:21:38;20.50;;;14.00;;
18999;SDS011;9633;50.980;13.850;2023-03-19T03:23:11;22.37;;;13.53;;
18999;SDS011;9633;50.980;13.850;2023-03-19T03:24:43;22.70;;;14.20;;
18999;SDS011;9633;50.980;13.850;2023-03-19T03:26:16;20.17;;;13.60;;
18999;SDS011;9633;50.980;13.850;2023-03-19T03:27:50;20.03;;;13.83;;
18999;SDS011;9633;50.980;13.850;2023-03-19T03:29:25;20.90;;;13.73;;
18999;SDS011;9633;50.980;13.850;2023-03-19T03:30:57;23.27;;;14.30;;
18999;SDS011;9633;50.980;13.850;2023-03-19T03:32:31;22.40;;;13.77;;
18999;SDS011;9633;50.980;13.850;2023-03-19T03:34:04;19.40;;;13.27;;
18999;SDS011;9633;50.980;13.850;2023-03-19T03:35:36;19.57;;;14.00;;
18999;SDS011;9633;50.980;13.850;2023-03-19T03:37:10;17.50;;;12.27;;
18999;SDS011;9633;50.980;13.850;2023-03-19T03:38:43;20.53;;;13.50;;
18999;SDS011;9633;50.980;13.850;2023-03-19T03:40:17;20.80;;;13.10;;
18999;SDS011;9633;50.980;13.850;2023-03-19T03:41:50;20.83;;;13.47;;
18999;SDS011;9633;50.980;13.850;2023-03-19T03:43:24;21.40;;;13.73;;
18999;SDS011;9633;50.980;13.850;2023-03-19T03:44:59;21.27;;;13.57;;
18999;SDS011;9633;50.980;13.850;2023-03-19T03:46:33;22.07;;;13.63;;
18999;SDS011;9633;50.980;13.850;2023-03-19T03:48:06;18.53;;;13.53;;
18999;SDS011;9633;50.980;13.850;2023-03-19T03:49:40;20.60;;;13.17;;
18999;SDS011;9633;50.980;13.850;2023-03-19T03:51:13;19.87;;;13.57;;
18999;SDS011;9633;50.980;13.850;2023-03-19T03:52:45;17.87;;;12.97;;
18999;SDS011;9633;50.980;13.850;2023-03-19T03:54:18;20.57;;;13.47;;
18999;SDS011;9633;50.980;13.850;2023-03-19T03:55:52;20.63;;;13.03;;
18999;SDS011;9633;50.980;13.850;2023-03-19T03:57:28;21.23;;;13.50;;
18999;SDS011;9633;50.980;13.850;2023-03-19T03:59:01;21.73;;;14.10;;
18999;SDS011;9633;50.980;13.850;2023-03-19T04:00:36;19.73;;;13.07;;
18999;SDS011;9633;50.980;13.850;2023-03-19T04:02:09;22.17;;;13.20;;
18999;SDS011;9633;50.980;13.850;2023-03-19T04:03:43;20.13;;;13.70;;
18999;SDS011;9633;50.980;13.850;2023-03-19T04:05:17;19.00;;;13.43;;
18999;SDS011;9633;50.980;13.850;2023-03-19T04:06:51;18.63;;;13.30;;
18999;SDS011;9633;50.980;13.850;2023-03-19T04:08:42;18.67;;;13.50;;
18999;SDS011;9633;50.980;13.850;2023-03-19T04:10:15;20.47;;;14.23;;
18999;SDS011;9633;50.980;13.850;2023-03-19T04:11:48;19.57;;;13.20;;
18999;SDS011;9633;50.980;13.850;2023-03-19T04:13:22;21.60;;;13.10;;
18999;SDS011;9633;50.980;13.850;2023-03-19T04:14:56;20.63;;;14.33;;
18999;SDS011;9633;50.980;13.850;2023-03-19T04:16:29;20.00;;;13.40;;
18999;SDS011;9633;50.980;13.850;2023-03-19T04:18:03;19.53;;;13.47;;
18999;SDS011;9633;50.980;13.850;2023-03-19T04:19:36;21.50;;;13.63;;
18999;SDS011;9633;50.980;13.850;2023-03-19T04:21:09;19.40;;;13.77;;
18999;SDS011;9633;50.980;13.850;2023-03-19T04:22:41;20.47;;;13.80;;
18999;SDS011;9633;50.980;13.850;2023-03-19T04:24:15;19.03;;;13.13;;
18999;SDS011;9633;50.980;13.850;2023-03-19T04:25:48;19.80;;;13.43;;
18999;SDS011;9633;50.980;13.850;2023-03-19T04:27:21;21.07;;;14.13;;
18999;SDS011;9633;50.980;13.850;2023-03-19T04:28:56;20.83;;;13.60;;
18999;SDS011;9633;50.980;13.850;2023-03-19T04:30:30;21.03;;;14.27;;
18999;SDS011;9633;50.980;13.850;2023-03-19T04:32:07;18.77;;;13.43;;
18999;SDS011;9633;50.980;13.850;2023-03-19T04:33:41;18.43;;;14.10;;
18999;SDS011;9633;50.980;13.850;2023-03-19T04:35:15;19.13;;;13.60;;
18999;SDS011;9633;50.980;13.850;2023-03-19T04:36:48;22.37;;;13.43;;
18999;SDS011;9633;50.980;13.850;2023-03-19T04:38:22;19.37;;;13.30;;
18999;SDS011;9633;50.980;13.850;2023-03-19T04:39:57;20.63;;;14.17;;
18999;SDS011;9633;50.980;13.850;2023-03-19T04:41:34;22.37;;;14.20;;
18999;SDS011;9633;50.980;13.850;2023-03-19T04:43:26;22.10;;;14.03;;
18999;SDS011;9633;50.980;13.850;2023-03-19T04:44:59;18.10;;;13.43;;
18999;SDS011;9633;50.980;13.850;2023-03-19T04:46:32;20.17;;;13.40;;
18999;SDS011;9633;50.980;13.850;2023-03-19T04:48:07;19.00;;;13.43;;
18999;SDS011;9633;50.980;13.850;2023-03-19T04:49:40;26.07;;;13.87;;
18999;SDS011;9633;50.980;13.850;2023-03-19T04:51:13;19.53;;;13.83;;
18999;SDS011;9633;50.980;13.850;2023-03-19T04:52:47;19.10;;;14.17;;
18999;SDS011;9633;50.980;13.850;2023-03-19T04:54:21;20.00;;;13.73;;
18999;SDS011;9633;50.980;13.850;2023-03-19T04:55:54;24.97;;;13.20;;
18999;SDS011;9633;50.980;13.850;2023-03-19T04:57:27;18.53;;;13.07;;
18999;SDS011;9633;50.980;13.850;2023-03-19T04:59:00;22.50;;;13.63;;
18999;SDS011;9633;50.980;13.850;2023-03-19T05:00:34;22.60;;;13.53;;
18999;SDS011;9633;50.980;13.850;2023-03-19T05:02:06;19.57;;;12.83;;
18999;SDS011;9633;50.980;13.850;2023-03-19T05:03:43;19.90;;;13.37;;
18999;SDS011;9633;50.980;13.850;2023-03-19T05:05:17;18.40;;;13.60;;
18999;SDS011;9633;50.980;13.850;2023-03-19T05:06:50;21.40;;;12.97;;
18999;SDS011;9633;50.980;13.850;2023-03-19T05:08:24;21.03;;;14.07;;
18999;SDS011;9633;50.980;13.850;2023-03-19T05:09:57;20.47;;;13.57;;
18999;SDS011;9633;50.980;13.850;2023-03-19T05:11:30;18.00;;;13.27;;
18999;SDS011;9633;50.980;13.850;2023-03-19T05:13:20;22.60;;;13.50;;
18999;SDS011;9633;50.980;13.850;2023-03-19T05:14:55;20.10;;;13.23;;
18999;SDS011;9633;50.980;13.850;2023-03-19T05:16:40;20.33;;;13.33;;
18999;SDS011;9633;50.980;13.850;2023-03-19T05:18:13;20.03;;;13.20;;
18999;SDS011;9633;50.980;13.850;2023-03-19T05:19:49;22.77;;;13.87;;
18999;SDS011;9633;50.980;13.850;2023-03-19T05:21:23;21.97;;;13.93;;
18999;SDS011;9633;50.980;13.850;2023-03-19T05:22:57;19.20;;;13.37;;
18999;SDS011;9633;50.980;13.850;2023-03-19T05:24:42;21.50;;;13.67;;
18999;SDS011;9633;50.980;13.850;2023-03-19T05:26:16;18.63;;;12.47;;
18999;SDS011;9633;50.980;13.850;2023-03-19T05:28:17;18.07;;;12.67;;
18999;SDS011;9633;50.980;13.850;2023-03-19T05:29:50;18.07;;;12.80;;
18999;SDS011;9633;50.980;13.850;2023-03-19T05:31:46;17.43;;;12.40;;
18999;SDS011;9633;50.980;13.850;2023-03-19T05:33:21;21.70;;;13.43;;
18999;SDS011;9633;50.980;13.850;2023-03-19T05:34:57;20.00;;;13.43;;
18999;SDS011;9633;50.980;13.850;2023-03-19T05:36:31;19.77;;;12.70;;
18999;SDS011;9633;50.980;13.850;2023-03-19T05:38:12;18.53;;;12.03;;
18999;SDS011;9633;50.980;13.850;2023-03-19T05:39:49;20.07;;;12.90;;
18999;SDS011;9633;50.980;13.850;2023-03-19T05:41:23;19.73;;;12.80;;
18999;SDS011;9633;50.980;13.850;2023-03-19T05:43:04;17.60;;;12.40;;
18999;SDS011;9633;50.980;13.850;2023-03-19T05:44:38;17.27;;;11.47;;
18999;SDS011;9633;50.980;13.850;2023-03-19T05:46:24;19.20;;;12.37;;
18999;SDS011;9633;50.980;13.850;2023-03-19T05:47:57;17.07;;;11.73;;
18999;SDS011;9633;50.980;13.850;2023-03-19T05:49:31;19.47;;;12.33;;
18999;SDS011;9633;50.980;13.850;2023-03-19T05:51:06;17.13;;;11.93;;
18999;SDS011;9633;50.980;13.850;2023-03-19T05:52:44;17.63;;;12.30;;
18999;SDS011;9633;50.980;13.850;2023-03-19T05:54:18;17.47;;;12.07;;
18999;SDS011;9633;50.980;13.850;2023-03-19T05:56:09;16.83;;;11.57;;
18999;SDS011;9633;50.980;13.850;2023-03-19T05:57:56;15.10;;;11.13;;
18999;SDS011;9633;50.980;13.850;2023-03-19T05:59:30;18.67;;;12.57;;
18999;SDS011;9633;50.980;13.850;2023-03-19T06:01:18;16.13;;;11.53;;
18999;SDS011;9633;50.980;13.850;2023-03-19T06:02:52;17.63;;;11.97;;
18999;SDS011;9633;50.980;13.850;2023-03-19T06:05:04;18.93;;;11.57;;
18999;SDS011;9633;50.980;13.850;2023-03-19T06:06:40;18.20;;;11.53;;
18999;SDS011;9633;50.980;13.850;2023-03-19T06:08:13;19.03;;;11.73;;
18999;SDS011;9633;50.980;13.850;2023-03-19T06:10:12;14.60;;;11.37;;
18999;SDS011;9633;50.980;13.850;2023-03-19T06:11:46;17.87;;;11.63;;
18999;SDS011;9633;50.980;13.850;2023-03-19T06:13:45;17.23;;;11.27;;
18999;SDS011;9633;50.980;13.850;2023-03-19T06:15:20;15.83;;;11.20;;
18999;SDS011;9633;50.980;13.850;2023-03-19T06:17:12;18.70;;;12.13;;
18999;SDS011;9633;50.980;13.850;2023-03-19T06:18:46;16.20;;;11.33;;
18999;SDS011;9633;50.980;13.850;2023-03-19T06:20:19;18.13;;;10.43;;
18999;SDS011;9633;50.980;13.850;2023-03-19T06:21:54;16.53;;;11.27;;
18999;SDS011;9633;50.980;13.850;2023-03-19T06:23:27;15.90;;;10.87;;
18999;SDS011;9633;50.980;13.850;2023-03-19T06:25:01;18.30;;;11.57;;
18999;SDS011;9633;50.980;13.850;2023-03-19T06:26:38;17.00;;;11.20;;
18999;SDS011;9633;50.980;13.850;2023-03-19T06:28:18;18.17;;;12.07;;
18999;SDS011;9633;50.980;13.850;2023-03-19T06:29:51;17.17;;;12.30;;
18999;SDS011;9633;50.980;13.850;2023-03-19T06:31:30;17.23;;;11.80;;
18999;SDS011;9633;50.980;13.850;2023-03-19T06:33:06;17.03;;;11.80;;
18999;SDS011;9633;50.980;13.850;2023-03-19T06:34:38;17.40;;;11.40;;
18999;SDS011;9633;50.980;13.850;2023-03-19T06:36:12;15.63;;;11.17;;
18999;SDS011;9633;50.980;13.850;2023-03-19T06:37:46;17.80;;;11.13;;
18999;SDS011;9633;50.980;13.850;2023-03-19T06:39:20;15.63;;;11.20;;
18999;SDS011;9633;50.980;13.850;2023-03-19T06:40:53;17.13;;;11.43;;
18999;SDS011;9633;50.980;13.850;2023-03-19T06:42:26;17.80;;;11.73;;
18999;SDS011;9633;50.980;13.850;2023-03-19T06:43:59;16.67;;;12.00;;
18999;SDS011;9633;50.980;13.850;2023-03-19T06:45:33;16.70;;;11.50;;
18999;SDS011;9633;50.980;13.850;2023-03-19T06:47:06;17.63;;;11.00;;
18999;SDS011;9633;50.980;13.850;2023-03-19T06:48:43;16.67;;;11.47;;
18999;SDS011;9633;50.980;13.850;2023-03-19T06:50:16;16.60;;;11.73;;
18999;SDS011;9633;50.980;13.850;2023-03-19T06:51:49;17.80;;;11.50;;
18999;SDS011;9633;50.980;13.850;2023-03-19T06:53:24;19.60;;;13.20;;
18999;SDS011;9633;50.980;13.850;2023-03-19T06:54:57;19.40;;;12.93;;
18999;SDS011;9633;50.980;13.850;2023-03-19T06:56:31;20.17;;;13.10;;
18999;SDS011;9633;50.980;13.850;2023-03-19T06:58:04;18.17;;;12.63;;
18999;SDS011;9633;50.980;13.850;2023-03-19T06:59:38;17.37;;;12.00;;
18999;SDS011;9633;50.980;13.850;2023-03-19T07:01:11;18.03;;;11.50;;
18999;SDS011;9633;50.980;13.850;2023-03-19T07:02:44;14.90;;;11.17;;
18999;SDS011;9633;50.980;13.850;2023-03-19T07:04:18;16.93;;;11.07;;
18999;SDS011;9633;50.980;13.850;2023-03-19T07:05:52;15.33;;;11.30;;
18999;SDS011;9633;50.980;13.850;2023-03-19T07:07:25;17.07;;;11.27;;
18999;SDS011;9633;50.980;13.850;2023-03-19T07:08:59;18.20;;;11.53;;
18999;SDS011;9633;50.980;13.850;2023-03-19T07:10:33;17.47;;;12.10;;
18999;SDS011;9633;50.980;13.850;2023-03-19T07:12:07;16.63;;;12.03;;
18999;SDS011;9633;50.980;13.850;2023-03-19T07:13:40;14.93;;;11.23;;
18999;SDS011;9633;50.980;13.850;2023-03-19T07:15:14;15.73;;;11.90;;
18999;SDS011;9633;50.980;13.850;2023-03-19T07:16:47;16.20;;;11.77;;
18999;SDS011;9633;50.980;13.850;2023-03-19T07:18:21;16.40;;;11.43;;
18999;SDS011;9633;50.980;13.850;2023-03-19T07:19:54;17.07;;;10.40;;
18999;SDS011;9633;50.980;13.850;2023-03-19T07:21:27;15.23;;;10.10;;
18999;SDS011;9633;50.980;13.850;2023-03-19T07:23:00;16.47;;;10.77;;
18999;SDS011;9633;50.980;13.850;2023-03-19T07:24:34;16.43;;;10.07;;
18999;SDS011;9633;50.980;13.850;2023-03-19T07:26:07;14.57;;;10.73;;
18999;SDS011;9633;50.980;13.850;2023-03-19T07:27:41;16.83;;;10.60;;
18999;SDS011;9633;50.980;13.850;2023-03-19T07:29:15;15.10;;;10.33;;
18999;SDS011;9633;50.980;13.850;2023-03-19T07:30:49;14.23;;;9.97;;
18999;SDS011;9633;50.980;13.850;2023-03-19T07:32:23;19.57;;;10.53;;
18999;SDS011;9633;50.980;13.850;2023-03-19T07:33:56;13.53;;;10.23;;
18999;SDS011;9633;50.980;13.850;2023-03-19T07:35:30;15.33;;;10.37;;
18999;SDS011;9633;50.980;13.850;2023-03-19T07:37:03;14.53;;;10.37;;
18999;SDS011;9633;50.980;13.850;2023-03-19T07:38:36;16.80;;;10.87;;
18999;SDS011;9633;50.980;13.850;2023-03-19T07:40:11;13.60;;;10.20;;
18999;SDS011;9633;50.980;13.850;2023-03-19T07:41:44;15.93;;;10.90;;
18999;SDS011;9633;50.980;13.850;2023-03-19T07:43:19;13.73;;;10.40;;
18999;SDS011;9633;50.980;13.850;2023-03-19T07:44:52;16.27;;;10.47;;
18999;SDS011;9633;50.980;13.850;2023-03-19T07:46:25;16.17;;;10.40;;
18999;SDS011;9633;50.980;13.850;2023-03-19T07:47:58;15.63;;;10.63;;
18999;SDS011;9633;50.980;13.850;2023-03-19T07:49:33;15.80;;;10.90;;
18999;SDS011;9633;50.980;13.850;2023-03-19T07:51:07;15.27;;;10.60;;
18999;SDS011;9633;50.980;13.850;2023-03-19T07:52:40;14.23;;;11.03;;
18999;SDS011;9633;50.980;13.850;2023-03-19T07:54:13;15.70;;;10.20;;
18999;SDS011;9633;50.980;13.850;2023-03-19T07:55:47;13.20;;;9.73;;
18999;SDS011;9633;50.980;13.850;2023-03-19T07:57:21;16.57;;;10.40;;
18999;SDS011;9633;50.980;13.850;2023-03-19T07:58:55;15.10;;;10.73;;
18999;SDS011;9633;50.980;13.850;2023-03-19T08:00:29;16.57;;;10.50;;
18999;SDS011;9633;50.980;13.850;2023-03-19T08:02:03;15.90;;;10.40;;
18999;SDS011;9633;50.980;13.850;2023-03-19T08:03:36;13.97;;;10.23;;
18999;SDS011;9633;50.980;13.850;2023-03-19T08:05:10;15.77;;;11.13;;
18999;SDS011;9633;50.980;13.850;2023-03-19T08:06:43;15.17;;;10.67;;
18999;SDS011;9633;50.980;13.850;2023-03-19T08:08:16;14.93;;;11.00;;
18999;SDS011;9633;50.980;13.850;2023-03-19T08:09:50;14.43;;;10.10;;
18999;SDS011;9633;50.980;13.850;2023-03-19T08:11:24;14.67;;;10.70;;
18999;SDS011;9633;50.980;13.850;2023-03-19T08:13:00;16.27;;;11.53;;
18999;SDS011;9633;50.980;13.850;2023-03-19T08:14:34;14.87;;;10.27;;
18999;SDS011;9633;50.980;13.850;2023-03-19T08:16:07;15.03;;;10.07;;
18999;SDS011;9633;50.980;13.850;2023-03-19T08:17:41;17.80;;;10.60;;
18999;SDS011;9633;50.980;13.850;2023-03-19T08:19:14;14.57;;;10.30;;
18999;SDS011;9633;50.980;13.850;2023-03-19T08:20:49;15.37;;;11.00;;
18999;SDS011;9633;50.980;13.850;2023-03-19T08:22:22;13.90;;;10.17;;
18999;SDS011;9633;50.980;13.850;2023-03-19T08:23:56;15.30;;;10.13;;
18999;SDS011;9633;50.980;13.850;2023-03-19T08:25:29;13.67;;;10.90;;
18999;SDS011;9633;50.980;13.850;2023-03-19T08:27:04;14.40;;;10.43;;
18999;SDS011;9633;50.980;13.850;2023-03-19T08:28:38;15.33;;;10.60;;
18999;SDS011;9633;50.980;13.850;2023-03-19T08:30:11;16.63;;;10.63;;
18999;SDS011;9633;50.980;13.850;2023-03-19T08:31:45;12.73;;;9.60;;
18999;SDS011;9633;50.980;13.850;2023-03-19T08:33:18;13.93;;;10.57;;
18999;SDS011;9633;50.980;13.850;2023-03-19T08:34:51;15.10;;;10.40;;
18999;SDS011;9633;50.980;13.850;2023-03-19T08:36:24;15.03;;;10.53;;
18999;SDS011;9633;50.980;13.850;2023-03-19T08:37:58;17.87;;;10.83;;
18999;SDS011;9633;50.980;13.850;2023-03-19T08:39:31;14.10;;;10.13;;
18999;SDS011;9633;50.980;13.850;2023-03-19T08:41:05;12.93;;;10.03;;
18999;SDS011;9633;50.980;13.850;2023-03-19T08:42:39;15.00;;;10.80;;
18999;SDS011;9633;50.980;13.850;2023-03-19T08:44:15;15.23;;;10.00;;
18999;SDS011;9633;50.980;13.850;2023-03-19T08:45:48;13.50;;;9.87;;
18999;SDS011;9633;50.980;13.850;2023-03-19T08:47:21;14.67;;;10.17;;
18999;SDS011;9633;50.980;13.850;2023-03-19T08:48:55;13.70;;;10.10;;
18999;SDS011;9633;50.980;13.850;2023-03-19T08:50:28;17.00;;;11.23;;
18999;SDS011;9633;50.980;13.850;2023-03-19T08:52:03;14.80;;;9.97;;
18999;SDS011;9633;50.980;13.850;2023-03-19T08:53:36;15.00;;;10.50;;
18999;SDS011;9633;50.980;13.850;2023-03-19T08:55:10;15.70;;;11.20;;
18999;SDS011;9633;50.980;13.850;2023-03-19T08:56:43;13.63;;;10.57;;
18999;SDS011;9633;50.980;13.850;2023-03-19T08:58:18;13.17;;;10.30;;
18999;SDS011;9633;50.980;13.850;2023-03-19T08:59:51;15.13;;;10.77;;
18999;SDS011;9633;50.980;13.850;2023-03-19T09:01:25;14.13;;;10.20;;
18999;SDS011;9633;50.980;13.850;2023-03-19T09:02:58;14.13;;;10.27;;
18999;SDS011;9633;50.980;13.850;2023-03-19T09:04:31;13.17;;;10.20;;
18999;SDS011;9633;50.980;13.850;2023-03-19T09:06:09;14.87;;;10.50;;
18999;SDS011;9633;50.980;13.850;2023-03-19T09:07:45;14.23;;;10.10;;
18999;SDS011;9633;50.980;13.850;2023-03-19T09:09:18;14.20;;;10.00;;
18999;SDS011;9633;50.980;13.850;2023-03-19T09:10:52;14.50;;;10.20;;
18999;SDS011;9633;50.980;13.850;2023-03-19T09:12:25;15.43;;;10.50;;
18999;SDS011;9633;50.980;13.850;2023-03-19T09:14:00;18.20;;;11.10;;
18999;SDS011;9633;50.980;13.850;2023-03-19T09:15:33;13.97;;;10.67;;
18999;SDS011;9633;50.980;13.850;2023-03-19T09:17:07;14.47;;;10.70;;
18999;SDS011;9633;50.980;13.850;2023-03-19T09:18:41;14.80;;;10.50;;
18999;SDS011;9633;50.980;13.850;2023-03-19T09:20:14;16.03;;;10.77;;